sensor_id;sensor_type;location;lat;lon;timestamp;P1;durP1;ratioP1;P2;durP2;ratioP2
78622;SDS011;67943;54.412;9.502;2023-05-18T00:04:23;11.07;;;1.98;;
78622;SDS011;67943;54.412;9.502;2023-05-18T00:09:26;9.02;;;1.67;;
78622;SDS011;67943;54.412;9.502;2023-05-18T00:14:27;8.98;;;1.60;;
78622;SDS011;67943;54.412;9.502;2023-05-18T00:19:29;7.88;;;1.95;;
78622;SDS011;67943;54.412;9.502;2023-05-18T00:24:32;6.45;;;1.50;;
78622;SDS011;67943;54.412;9.502;2023-05-18T00:29:33;9.40;;;2.15;;
78622;SDS011;67943;54.412;9.502;2023-05-18T00:34:35;6.47;;;1.60;;
78622;SDS011;67943;54.412;9.502;2023-05-18T00:39:38;7.32;;;1.55;;
78622;SDS011;67943;54.412;9.502;2023-05-18T00:44:39;6.60;;;1.40;;
78622;SDS011;67943;54.412;9.502;2023-05-18T00:49:41;10.27;;;2.28;;
78622;SDS011;67943;54.412;9.502;2023-05-18T00:54:43;8.10;;;1.73;;
78622;SDS011;67943;54.412;9.502;2023-05-18T00:59:45;5.57;;;1.23;;
78622;SDS011;67943;54.412;9.502;2023-05-18T01:04:47;8.75;;;2.17;;
78622;SDS011;67943;54.412;9.502;2023-05-18T01:09:53;8.35;;;1.90;;
78622;SDS011;67943;54.412;9.502;2023-05-18T01:14:58;8.55;;;1.63;;
78622;SDS011;67943;54.412;9.502;2023-05-18T01:20:11;10.47;;;1.77;;
78622;SDS011;67943;54.412;9.502;2023-05-18T01:25:29;4.22;;;1.50;;
78622;SDS011;67943;54.412;9.502;2023-05-18T01:30:37;6.80;;;1.77;;
78622;SDS011;67943;54.412;9.502;2023-05-18T01:35:41;9.93;;;2.50;;
78622;SDS011;67943;54.412;9.502;2023-05-18T01:40:49;10.73;;;1.90;;
78622;SDS011;67943;54.412;9.502;2023-05-18T01:46:00;9.95;;;2.20;;
78622;SDS011;67943;54.412;9.502;2023-05-18T01:51:06;8.25;;;2.10;;
78622;SDS011;67943;54.412;9.502;2023-05-18T01:56:12;5.57;;;1.73;;
78622;SDS011;67943;54.412;9.502;2023-05-18T02:01:16;9.48;;;1.50;;
78622;SDS011;67943;54.412;9.502;2023-05-18T02:06:19;11.98;;;2.03;;
78622;SDS011;67943;54.412;9.502;2023-05-18T02:11:20;10.77;;;1.90;;
78622;SDS011;67943;54.412;9.502;2023-05-18T02:16:23;10.25;;;2.50;;
78622;SDS011;67943;54.412;9.502;2023-05-18T02:21:24;10.30;;;2.10;;
78622;SDS011;67943;54.412;9.502;2023-05-18T02:26:26;9.38;;;1.67;;
78622;SDS011;67943;54.412;9.502;2023-05-18T02:31:28;10.85;;;2.00;;
78622;SDS011;67943;54.412;9.502;2023-05-18T02:36:30;9.35;;;2.13;;
78622;SDS011;67943;54.412;9.502;2023-05-18T02:41:36;7.55;;;1.70;;
78622;SDS011;67943;54.412;9.502;2023-05-18T02:46:39;9.18;;;2.22;;
78622;SDS011;67943;54.412;9.502;2023-05-18T02:51:40;9.82;;;2.05;;
78622;SDS011;67943;54.412;9.502;2023-05-18T02:56:42;7.90;;;1.70;;
78622;SDS011;67943;54.412;9.502;2023-05-18T03:01:44;6.65;;;1.92;;
78622;SDS011;67943;54.412;9.502;2023-05-18T03:06:46;8.43;;;2.28;;
78622;SDS011;67943;54.412;9.502;2023-05-18T03:11:51;9.63;;;2.60;;
78622;SDS011;67943;54.412;9.502;2023-05-18T03:16:54;7.15;;;2.15;;
78622;SDS011;67943;54.412;9.502;2023-05-18T03:21:56;5.30;;;1.75;;
78622;SDS011;67943;54.412;9.502;2023-05-18T03:26:58;8.15;;;2.30;;
78622;SDS011;67943;54.412;9.502;2023-05-18T03:32:01;7.68;;;1.88;;
78622;SDS011;67943;54.412;9.502;2023-05-18T03:37:02;6.75;;;1.98;;
78622;SDS011;67943;54.412;9.502;2023-05-18T03:42:04;9.30;;;1.75;;
78622;SDS011;67943;54.412;9.502;2023-05-18T03:47:07;6.97;;;2.13;;
78622;SDS011;67943;54.412;9.502;2023-05-18T03:52:09;8.10;;;1.90;;
78622;SDS011;67943;54.412;9.502;2023-05-18T03:57:10;7.05;;;1.77;;
78622;SDS011;67943;54.412;9.502;2023-05-18T04:02:13;7.45;;;2.38;;
78622;SDS011;67943;54.412;9.502;2023-05-18T04:07:15;8.98;;;1.73;;
78622;SDS011;67943;54.412;9.502;2023-05-18T04:12:17;9.52;;;1.77;;
78622;SDS011;67943;54.412;9.502;2023-05-18T04:17:20;8.93;;;2.30;;
78622;SDS011;67943;54.412;9.502;2023-05-18T04:22:21;5.70;;;1.67;;
78622;SDS011;67943;54.412;9.502;2023-05-18T04:27:23;17.17;;;2.30;;
78622;SDS011;67943;54.412;9.502;2023-05-18T04:32:26;7.13;;;1.80;;
78622;SDS011;67943;54.412;9.502;2023-05-18T04:37:30;5.78;;;1.90;;
78622;SDS011;67943;54.412;9.502;2023-05-18T04:42:32;4.95;;;1.27;;
78622;SDS011;67943;54.412;9.502;2023-05-18T04:47:36;6.22;;;1.25;;
78622;SDS011;67943;54.412;9.502;2023-05-18T04:52:37;4.97;;;1.70;;
78622;SDS011;67943;54.412;9.502;2023-05-18T04:57:40;5.60;;;1.60;;
78622;SDS011;67943;54.412;9.502;2023-05-18T05:02:45;6.65;;;1.63;;
78622;SDS011;67943;54.412;9.502;2023-05-18T05:07:47;5.68;;;1.88;;
78622;SDS011;67943;54.412;9.502;2023-05-18T05:12:49;5.45;;;1.65;;
78622;SDS011;67943;54.412;9.502;2023-05-18T05:17:53;7.32;;;1.90;;
78622;SDS011;67943;54.412;9.502;2023-05-18T05:22:54;6.13;;;1.73;;
78622;SDS011;67943;54.412;9.502;2023-05-18T05:27:56;7.68;;;2.05;;
78622;SDS011;67943;54.412;9.502;2023-05-18T05:32:59;6.05;;;1.77;;
78622;SDS011;67943;54.412;9.502;2023-05-18T05:38:00;10.60;;;2.20;;
78622;SDS011;67943;54.412;9.502;2023-05-18T05:43:03;4.68;;;1.42;;
78622;SDS011;67943;54.412;9.502;2023-05-18T05:48:06;8.20;;;2.20;;
78622;SDS011;67943;54.412;9.502;2023-05-18T05:53:07;5.93;;;1.40;;
78622;SDS011;67943;54.412;9.502;2023-05-18T05:58:09;4.10;;;1.48;;
78622;SDS011;67943;54.412;9.502;2023-05-18T06:03:12;7.57;;;1.77;;
78622;SDS011;67943;54.412;9.502;2023-05-18T06:08:14;6.38;;;1.50;;
78622;SDS011;67943;54.412;9.502;2023-05-18T06:13:16;7.90;;;2.00;;
78622;SDS011;67943;54.412;9.502;2023-05-18T06:18:19;9.70;;;1.85;;
78622;SDS011;67943;54.412;9.502;2023-05-18T06:23:20;8.38;;;1.42;;
78622;SDS011;67943;54.412;9.502;2023-05-18T06:28:22;7.35;;;1.75;;
78622;SDS011;67943;54.412;9.502;2023-05-18T06:33:25;5.82;;;1.67;;
78622;SDS011;67943;54.412;9.502;2023-05-18T06:38:27;8.07;;;1.65;;
78622;SDS011;67943;54.412;9.502;2023-05-18T06:43:29;5.00;;;1.85;;
78622;SDS011;67943;54.412;9.502;2023-05-18T06:48:32;9.40;;;1.95;;
78622;SDS011;67943;54.412;9.502;2023-05-18T06:53:33;9.30;;;1.92;;
78622;SDS011;67943;54.412;9.502;2023-05-18T06:58:35;6.95;;;1.88;;
78622;SDS011;67943;54.412;9.502;2023-05-18T07:03:38;8.80;;;1.75;;
78622;SDS011;67943;54.412;9.502;2023-05-18T07:08:40;5.82;;;1.50;;
78622;SDS011;67943;54.412;9.502;2023-05-18T07:13:41;9.48;;;2.30;;
78622;SDS011;67943;54.412;9.502;2023-05-18T07:18:44;11.95;;;2.22;;
78622;SDS011;67943;54.412;9.502;2023-05-18T07:23:46;8.30;;;1.42;;
78622;SDS011;67943;54.412;9.502;2023-05-18T07:28:47;4.90;;;1.40;;
78622;SDS011;67943;54.412;9.502;2023-05-18T07:33:51;7.13;;;1.90;;
78622;SDS011;67943;54.412;9.502;2023-05-18T07:38:53;8.98;;;2.10;;
78622;SDS011;67943;54.412;9.502;2023-05-18T07:43:55;5.65;;;1.40;;
78622;SDS011;67943;54.412;9.502;2023-05-18T07:48:58;7.28;;;1.73;;
78622;SDS011;67943;54.412;9.502;2023-05-18T07:54:00;10.63;;;2.00;;
78622;SDS011;67943;54.412;9.502;2023-05-18T07:59:02;4.90;;;1.38;;
78622;SDS011;67943;54.412;9.502;2023-05-18T08:04:05;10.93;;;1.48;;
78622;SDS011;67943;54.412;9.502;2023-05-18T08:09:07;8.07;;;1.80;;
78622;SDS011;67943;54.412;9.502;2023-05-18T08:14:08;10.10;;;2.15;;
78622;SDS011;67943;54.412;9.502;2023-05-18T08:19:11;6.90;;;1.90;;
78622;SDS011;67943;54.412;9.502;2023-05-18T08:24:13;6.50;;;1.70;;
78622;SDS011;67943;54.412;9.502;2023-05-18T08:29:14;7.75;;;1.80;;
78622;SDS011;67943;54.412;9.502;2023-05-18T08:34:17;9.05;;;1.85;;
78622;SDS011;67943;54.412;9.502;2023-05-18T08:39:18;7.47;;;1.70;;
78622;SDS011;67943;54.412;9.502;2023-05-18T08:44:21;7.95;;;1.75;;
78622;SDS011;67943;54.412;9.502;2023-05-18T08:49:28;5.00;;;1.60;;
78622;SDS011;67943;54.412;9.502;2023-05-18T08:54:32;4.25;;;1.27;;
78622;SDS011;67943;54.412;9.502;2023-05-18T08:59:38;5.78;;;1.50;;
78622;SDS011;67943;54.412;9.502;2023-05-18T09:04:43;5.00;;;1.80;;
78622;SDS011;67943;54.412;9.502;2023-05-18T09:09:46;5.47;;;1.40;;
78622;SDS011;67943;54.412;9.502;2023-05-18T09:14:47;4.30;;;1.67;;
78622;SDS011;67943;54.412;9.502;2023-05-18T09:19:50;14.45;;;2.00;;
78622;SDS011;67943;54.412;9.502;2023-05-18T09:24:52;4.60;;;1.88;;
78622;SDS011;67943;54.412;9.502;2023-05-18T09:29:54;6.88;;;1.92;;
78622;SDS011;67943;54.412;9.502;2023-05-18T09:35:03;7.13;;;1.90;;
78622;SDS011;67943;54.412;9.502;2023-05-18T09:40:05;3.03;;;1.50;;
78622;SDS011;67943;54.412;9.502;2023-05-18T09:45:14;5.45;;;1.73;;
78622;SDS011;67943;54.412;9.502;2023-05-18T09:50:19;5.55;;;1.40;;
78622;SDS011;67943;54.412;9.502;2023-05-18T09:55:20;7.22;;;1.75;;
78622;SDS011;67943;54.412;9.502;2023-05-18T10:00:22;5.63;;;1.70;;
78622;SDS011;67943;54.412;9.502;2023-05-18T10:05:26;4.18;;;1.13;;
78622;SDS011;67943;54.412;9.502;2023-05-18T10:10:30;4.18;;;1.63;;
78622;SDS011;67943;54.412;9.502;2023-05-18T10:15:32;3.40;;;1.27;;
78622;SDS011;67943;54.412;9.502;2023-05-18T10:20:36;6.47;;;1.67;;
78622;SDS011;67943;54.412;9.502;2023-05-18T10:25:38;6.70;;;2.00;;
78622;SDS011;67943;54.412;9.502;2023-05-18T10:30:44;3.15;;;1.48;;
78622;SDS011;67943;54.412;9.502;2023-05-18T10:35:48;8.18;;;1.88;;
78622;SDS011;67943;54.412;9.502;2023-05-18T10:40:51;5.57;;;1.80;;
78622;SDS011;67943;54.412;9.502;2023-05-18T10:45:55;6.68;;;1.70;;
78622;SDS011;67943;54.412;9.502;2023-05-18T10:50:58;7.00;;;1.60;;
78622;SDS011;67943;54.412;9.502;2023-05-18T10:56:04;4.38;;;1.60;;
78622;SDS011;67943;54.412;9.502;2023-05-18T11:01:08;7.07;;;1.80;;
78622;SDS011;67943;54.412;9.502;2023-05-18T11:06:14;5.95;;;2.15;;
78622;SDS011;67943;54.412;9.502;2023-05-18T11:11:24;5.30;;;1.63;;
78622;SDS011;67943;54.412;9.502;2023-05-18T11:16:31;5.75;;;1.50;;
78622;SDS011;67943;54.412;9.502;2023-05-18T11:21:50;4.80;;;1.48;;
78622;SDS011;67943;54.412;9.502;2023-05-18T11:26:53;5.45;;;2.10;;
78622;SDS011;67943;54.412;9.502;2023-05-18T11:31:56;6.63;;;1.58;;
78622;SDS011;67943;54.412;9.502;2023-05-18T11:36:59;5.75;;;1.90;;
78622;SDS011;67943;54.412;9.502;2023-05-18T11:42:02;8.75;;;1.95;;
78622;SDS011;67943;54.412;9.502;2023-05-18T11:47:07;5.95;;;1.90;;
78622;SDS011;67943;54.412;9.502;2023-05-18T11:52:14;4.47;;;1.80;;
78622;SDS011;67943;54.412;9.502;2023-05-18T11:57:19;8.30;;;1.90;;
78622;SDS011;67943;54.412;9.502;2023-05-18T12:02:24;3.80;;;1.83;;
78622;SDS011;67943;54.412;9.502;2023-05-18T12:07:28;5.20;;;1.80;;
78622;SDS011;67943;54.412;9.502;2023-05-18T12:12:31;6.25;;;1.85;;
78622;SDS011;67943;54.412;9.502;2023-05-18T12:17:36;5.82;;;2.20;;
78622;SDS011;67943;54.412;9.502;2023-05-18T12:22:41;4.60;;;1.42;;
78622;SDS011;67943;54.412;9.502;2023-05-18T12:27:45;5.78;;;2.00;;
78622;SDS011;67943;54.412;9.502;2023-05-18T12:32:48;6.70;;;1.98;;
78622;SDS011;67943;54.412;9.502;2023-05-18T12:37:53;6.45;;;1.90;;
78622;SDS011;67943;54.412;9.502;2023-05-18T12:42:57;7.03;;;2.08;;
78622;SDS011;67943;54.412;9.502;2023-05-18T12:48:02;5.68;;;1.95;;
78622;SDS011;67943;54.412;9.502;2023-05-18T12:53:06;6.70;;;2.00;;
78622;SDS011;67943;54.412;9.502;2023-05-18T12:58:10;8.35;;;2.13;;
78622;SDS011;67943;54.412;9.502;2023-05-18T13:03:15;4.82;;;2.40;;
78622;SDS011;67943;54.412;9.502;2023-05-18T13:08:19;5.75;;;2.13;;
78622;SDS011;67943;54.412;9.502;2023-05-18T13:13:21;4.72;;;2.00;;
78622;SDS011;67943;54.412;9.502;2023-05-18T13:18:23;5.10;;;1.88;;
78622;SDS011;67943;54.412;9.502;2023-05-18T13:23:27;4.25;;;2.13;;
78622;SDS011;67943;54.412;9.502;2023-05-18T13:28:30;5.40;;;2.38;;
78622;SDS011;67943;54.412;9.502;2023-05-18T13:33:31;4.82;;;1.92;;
78622;SDS011;67943;54.412;9.502;2023-05-18T13:38:34;5.97;;;2.03;;
78622;SDS011;67943;54.412;9.502;2023-05-18T13:43:36;4.22;;;1.73;;
78622;SDS011;67943;54.412;9.502;2023-05-18T13:48:38;5.88;;;1.90;;
78622;SDS011;67943;54.412;9.502;2023-05-18T13:53:41;5.70;;;1.90;;
78622;SDS011;67943;54.412;9.502;2023-05-18T13:58:42;5.78;;;2.03;;
78622;SDS011;67943;54.412;9.502;2023-05-18T14:03:44;5.60;;;2.40;;
78622;SDS011;67943;54.412;9.502;2023-05-18T14:08:46;5.30;;;1.90;;
78622;SDS011;67943;54.412;9.502;2023-05-18T14:13:48;8.48;;;2.70;;
78622;SDS011;67943;54.412;9.502;2023-05-18T14:18:49;6.82;;;2.05;;
78622;SDS011;67943;54.412;9.502;2023-05-18T14:23:52;12.55;;;2.85;;
78622;SDS011;67943;54.412;9.502;2023-05-18T14:28:54;5.25;;;2.38;;
78622;SDS011;67943;54.412;9.502;2023-05-18T14:33:56;4.90;;;2.05;;
78622;SDS011;67943;54.412;9.502;2023-05-18T14:38:58;5.65;;;2.40;;
78622;SDS011;67943;54.412;9.502;2023-05-18T14:44:00;6.80;;;2.20;;
78622;SDS011;67943;54.412;9.502;2023-05-18T14:49:02;6.85;;;2.10;;
78622;SDS011;67943;54.412;9.502;2023-05-18T14:54:05;8.05;;;2.55;;
78622;SDS011;67943;54.412;9.502;2023-05-18T14:59:07;6.38;;;2.33;;
78622;SDS011;67943;54.412;9.502;2023-05-18T15:04:08;8.65;;;2.00;;
78622;SDS011;67943;54.412;9.502;2023-05-18T15:09:11;5.05;;;2.80;;
78622;SDS011;67943;54.412;9.502;2023-05-18T15:14:14;7.45;;;3.38;;
78622;SDS011;67943;54.412;9.502;2023-05-18T15:19:15;5.35;;;2.60;;
78622;SDS011;67943;54.412;9.502;2023-05-18T15:24:18;7.93;;;2.35;;
78622;SDS011;67943;54.412;9.502;2023-05-18T15:29:20;6.35;;;2.33;;
78622;SDS011;67943;54.412;9.502;2023-05-18T15:34:21;5.25;;;2.50;;
78622;SDS011;67943;54.412;9.502;2023-05-18T15:39:24;6.75;;;2.08;;
78622;SDS011;67943;54.412;9.502;2023-05-18T15:44:26;6.40;;;2.38;;
78622;SDS011;67943;54.412;9.502;2023-05-18T15:49:27;5.68;;;2.83;;
78622;SDS011;67943;54.412;9.502;2023-05-18T15:54:30;6.68;;;2.30;;
78622;SDS011;67943;54.412;9.502;2023-05-18T15:59:31;4.28;;;2.15;;
78622;SDS011;67943;54.412;9.502;2023-05-18T16:04:33;6.68;;;2.35;;
78622;SDS011;67943;54.412;9.502;2023-05-18T16:09:36;11.55;;;2.00;;
78622;SDS011;67943;54.412;9.502;2023-05-18T16:14:37;8.70;;;2.25;;
78622;SDS011;67943;54.412;9.502;2023-05-18T16:19:39;8.48;;;2.25;;
78622;SDS011;67943;54.412;9.502;2023-05-18T16:24:42;7.68;;;2.08;;
78622;SDS011;67943;54.412;9.502;2023-05-18T16:29:43;4.95;;;2.30;;
78622;SDS011;67943;54.412;9.502;2023-05-18T16:34:45;8.90;;;2.10;;
78622;SDS011;67943;54.412;9.502;2023-05-18T16:39:48;8.13;;;1.98;;
78622;SDS011;67943;54.412;9.502;2023-05-18T16:44:49;6.30;;;2.10;;
78622;SDS011;67943;54.412;9.502;2023-05-18T16:49:51;7.78;;;2.58;;
78622;SDS011;67943;54.412;9.502;2023-05-18T16:54:54;7.70;;;2.40;;
78622;SDS011;67943;54.412;9.502;2023-05-18T16:59:55;8.23;;;2.58;;
78622;SDS011;67943;54.412;9.502;2023-05-18T17:04:57;6.47;;;3.05;;
78622;SDS011;67943;54.412;9.502;2023-05-18T17:10:00;4.57;;;2.13;;
78622;SDS011;67943;54.412;9.502;2023-05-18T17:15:02;10.80;;;2.90;;
78622;SDS011;67943;54.412;9.502;2023-05-18T17:20:04;9.02;;;2.53;;
78622;SDS011;67943;54.412;9.502;2023-05-18T17:25:09;6.30;;;2.63;;
78622;SDS011;67943;54.412;9.502;2023-05-18T17:30:11;9.00;;;2.95;;
78622;SDS011;67943;54.412;9.502;2023-05-18T17:35:12;7.18;;;2.85;;
78622;SDS011;67943;54.412;9.502;2023-05-18T17:40:15;7.75;;;2.80;;
78622;SDS011;67943;54.412;9.502;2023-05-18T17:45:17;7.35;;;2.45;;
78622;SDS011;67943;54.412;9.502;2023-05-18T17:50:18;8.55;;;3.15;;
78622;SDS011;67943;54.412;9.502;2023-05-18T17:55:21;5.53;;;2.65;;
78622;SDS011;67943;54.412;9.502;2023-05-18T18:00:22;3.40;;;2.35;;
78622;SDS011;67943;54.412;9.502;2023-05-18T18:05:24;8.18;;;3.03;;
78622;SDS011;67943;54.412;9.502;2023-05-18T18:10:27;8.82;;;2.72;;
78622;SDS011;67943;54.412;9.502;2023-05-18T18:15:30;6.82;;;2.67;;
78622;SDS011;67943;54.412;9.502;2023-05-18T18:20:32;5.28;;;2.22;;
78622;SDS011;67943;54.412;9.502;2023-05-18T18:25:36;7.95;;;2.33;;
78622;SDS011;67943;54.412;9.502;2023-05-18T18:30:38;6.07;;;2.15;;
78622;SDS011;67943;54.412;9.502;2023-05-18T18:35:40;7.15;;;2.28;;
78622;SDS011;67943;54.412;9.502;2023-05-18T18:40:43;5.57;;;2.28;;
78622;SDS011;67943;54.412;9.502;2023-05-18T18:45:45;4.80;;;1.98;;
78622;SDS011;67943;54.412;9.502;2023-05-18T18:50:46;9.93;;;2.80;;
78622;SDS011;67943;54.412;9.502;2023-05-18T18:55:49;8.45;;;2.70;;
78622;SDS011;67943;54.412;9.502;2023-05-18T19:00:50;6.20;;;2.55;;
78622;SDS011;67943;54.412;9.502;2023-05-18T19:05:52;5.40;;;2.03;;
78622;SDS011;67943;54.412;9.502;2023-05-18T19:10:55;9.23;;;2.72;;
78622;SDS011;67943;54.412;9.502;2023-05-18T19:15:56;7.55;;;2.33;;
78622;SDS011;67943;54.412;9.502;2023-05-18T19:20:58;8.05;;;2.10;;
78622;SDS011;67943;54.412;9.502;2023-05-18T19:26:01;6.90;;;1.95;;
78622;SDS011;67943;54.412;9.502;2023-05-18T19:31:03;6.75;;;1.98;;
78622;SDS011;67943;54.412;9.502;2023-05-18T19:36:04;5.50;;;2.05;;
78622;SDS011;67943;54.412;9.502;2023-05-18T19:41:07;5.90;;;1.90;;
78622;SDS011;67943;54.412;9.502;2023-05-18T19:46:09;4.57;;;2.13;;
78622;SDS011;67943;54.412;9.502;2023-05-18T19:51:11;6.07;;;2.30;;
78622;SDS011;67943;54.412;9.502;2023-05-18T19:56:14;6.18;;;2.15;;
78622;SDS011;67943;54.412;9.502;2023-05-18T20:01:15;8.25;;;2.35;;
78622;SDS011;67943;54.412;9.502;2023-05-18T20:06:17;6.05;;;2.40;;
78622;SDS011;67943;54.412;9.502;2023-05-18T20:11:20;6.22;;;2.40;;
78622;SDS011;67943;54.412;9.502;2023-05-18T20:16:22;5.95;;;2.53;;
78622;SDS011;67943;54.412;9.502;2023-05-18T20:21:25;5.63;;;2.53;;
78622;SDS011;67943;54.412;9.502;2023-05-18T20:26:28;6.88;;;2.78;;
78622;SDS011;67943;54.412;9.502;2023-05-18T20:31:29;7.65;;;2.67;;
78622;SDS011;67943;54.412;9.502;2023-05-18T20:36:31;7.93;;;2.45;;
78622;SDS011;67943;54.412;9.502;2023-05-18T20:41:33;6.60;;;3.22;;
78622;SDS011;67943;54.412;9.502;2023-05-18T20:46:39;6.80;;;2.88;;
78622;SDS011;67943;54.412;9.502;2023-05-18T20:51:41;5.95;;;2.47;;
78622;SDS011;67943;54.412;9.502;2023-05-18T20:56:44;8.98;;;2.53;;
78622;SDS011;67943;54.412;9.502;2023-05-18T21:01:46;6.95;;;2.92;;
78622;SDS011;67943;54.412;9.502;2023-05-18T21:06:49;5.70;;;2.45;;
78622;SDS011;67943;54.412;9.502;2023-05-18T21:11:52;10.05;;;3.47;;
78622;SDS011;67943;54.412;9.502;2023-05-18T21:16:54;7.28;;;3.38;;
78622;SDS011;67943;54.412;9.502;2023-05-18T21:21:55;7.68;;;2.90;;
78622;SDS011;67943;54.412;9.502;2023-05-18T21:26:58;5.93;;;2.42;;
78622;SDS011;67943;54.412;9.502;2023-05-18T21:32:00;7.85;;;3.22;;
78622;SDS011;67943;54.412;9.502;2023-05-18T21:37:02;7.47;;;2.95;;
78622;SDS011;67943;54.412;9.502;2023-05-18T21:42:05;4.90;;;2.25;;
78622;SDS011;67943;54.412;9.502;2023-05-18T21:47:07;7.55;;;2.85;;
78622;SDS011;67943;54.412;9.502;2023-05-18T21:52:09;4.45;;;2.53;;
78622;SDS011;67943;54.412;9.502;2023-05-18T21:57:11;8.02;;;3.03;;
78622;SDS011;67943;54.412;9.502;2023-05-18T22:02:13;9.05;;;2.88;;
78622;SDS011;67943;54.412;9.502;2023-05-18T22:07:15;7.18;;;2.65;;
78622;SDS011;67943;54.412;9.502;2023-05-18T22:12:17;6.50;;;3.70;;
78622;SDS011;67943;54.412;9.502;2023-05-18T22:17:22;5.30;;;2.28;;
78622;SDS011;67943;54.412;9.502;2023-05-18T22:22:24;5.07;;;2.45;;
78622;SDS011;67943;54.412;9.502;2023-05-18T22:27:26;6.40;;;2.55;;
78622;SDS011;67943;54.412;9.502;2023-05-18T22:32:28;7.03;;;2.67;;
78622;SDS011;67943;54.412;9.502;2023-05-18T22:37:29;7.28;;;2.70;;
78622;SDS011;67943;54.412;9.502;2023-05-18T22:42:32;7.40;;;2.83;;
78622;SDS011;67943;54.412;9.502;2023-05-18T22:47:34;5.47;;;2.80;;
78622;SDS011;67943;54.412;9.502;2023-05-18T22:52:36;5.38;;;2.88;;
78622;SDS011;67943;54.412;9.502;2023-05-18T22:57:39;8.88;;;3.33;;
78622;SDS011;67943;54.412;9.502;2023-05-18T23:02:41;6.13;;;2.97;;
78622;SDS011;67943;54.412;9.502;2023-05-18T23:07:42;6.72;;;2.67;;
78622;SDS011;67943;54.412;9.502;2023-05-18T23:12:45;7.10;;;3.08;;
78622;SDS011;67943;54.412;9.502;2023-05-18T23:17:47;7.75;;;3.20;;
78622;SDS011;67943;54.412;9.502;2023-05-18T23:22:49;7.22;;;3.20;;
78622;SDS011;67943;54.412;9.502;2023-05-18T23:27:51;7.50;;;3.00;;
78622;SDS011;67943;54.412;9.502;2023-05-18T23:32:53;5.47;;;3.00;;
78622;SDS011;67943;54.412;9.502;2023-05-18T23:37:55;9.40;;;3.58;;
78622;SDS011;67943;54.412;9.502;2023-05-18T23:43:05;11.05;;;3.58;;
78622;SDS011;67943;54.412;9.502;2023-05-18T23:48:07;7.03;;;3.03;;
78622;SDS011;67943;54.412;9.502;2023-05-18T23:53:10;9.25;;;3.20;;
78622;SDS011;67943;54.412;9.502;2023-05-18T23:58:14;7.70;;;3.45;;
